Time;durP1;ratioP1;P1;durP2;ratioP2;P2;SDS_P1;SDS_P2;PMS_P1;PMS_P2;Temp;Humidity;BMP_temperature;BMP_pressure;BME280_temperature;BME280_humidity;BME280_pressure;Samples;Min_cycle;Max_cycle;Signal;HPM_P1;HPM_P2
2021/11/29 00:00:21;;;;;;;37.88;24.83;;;0.30;99.90;;;;;;2055856;28;20521;-70
2021/11/29 00:01:25;;;;;;;39.10;24.55;;;0.20;99.90;;;;;;2056625;28;20031;-70
2021/11/29 00:02:26;;;;;;;36.75;24.30;;;0.20;99.90;;;;;;2056213;28;20047;-71
2021/11/29 00:03:31;;;;;;;38.28;24.08;;;0.20;99.90;;;;;;2056662;28;20488;-70
2021/11/29 00:04:31;;;;;;;38.70;24.08;;;0.20;99.90;;;;;;2055868;28;20023;-71
2021/11/29 00:05:33;;;;;;;38.13;24.63;;;0.10;99.90;;;;;;2056001;28;20031;-69
2021/11/29 00:06:33;;;;;;;37.72;24.27;;;0.10;99.90;;;;;;2055908;28;20085;-71
2021/11/29 00:07:34;;;;;;;39.53;24.45;;;0.10;99.90;;;;;;2055999;28;20029;-70
2021/11/29 00:08:35;;;;;;;40.80;24.30;;;0.10;99.90;;;;;;2056537;28;20054;-71
2021/11/29 00:09:36;;;;;;;38.75;23.90;;;0.10;99.90;;;;;;2056695;28;20837;-71
2021/11/29 00:10:37;;;;;;;40.40;24.75;;;0.10;99.90;;;;;;2056793;28;20466;-72
2021/11/29 00:11:37;;;;;;;40.58;24.67;;;0.10;99.90;;;;;;2054981;28;20118;-71
2021/11/29 00:12:38;;;;;;;39.60;24.55;;;0.10;99.90;;;;;;2055887;28;20106;-71
2021/11/29 00:13:40;;;;;;;40.78;24.35;;;0.10;99.90;;;;;;2056620;28;20026;-70
2021/11/29 00:14:40;;;;;;;39.53;24.55;;;0.00;99.90;;;;;;2056805;28;20034;-72
2021/11/29 00:15:41;;;;;;;38.35;23.95;;;0.00;99.90;;;;;;2056862;28;20046;-71
2021/11/29 00:16:42;;;;;;;37.22;23.77;;;0.00;99.90;;;;;;2057173;28;20034;-73
2021/11/29 00:17:42;;;;;;;41.28;24.73;;;0.00;99.90;;;;;;2056461;28;20165;-72
2021/11/29 00:18:43;;;;;;;39.55;24.35;;;0.00;99.90;;;;;;2048225;29;20043;-73
2021/11/29 00:19:44;;;;;;;38.50;24.08;;;0.00;99.90;;;;;;2048404;29;20745;-72
2021/11/29 00:20:45;;;;;;;43.83;25.65;;;0.00;99.90;;;;;;2056128;28;20522;-72
2021/11/29 00:21:45;;;;;;;42.97;25.42;;;0.00;99.90;;;;;;2055576;28;20032;-73
2021/11/29 00:22:47;;;;;;;40.67;24.73;;;0.00;99.90;;;;;;2056663;28;20394;-72
2021/11/29 00:23:48;;;;;;;42.20;25.48;;;0.00;99.90;;;;;;2050438;28;20522;-73
2021/11/29 00:24:49;;;;;;;39.30;24.67;;;0.00;99.90;;;;;;2054554;28;20078;-73
2021/11/29 00:25:51;;;;;;;40.60;24.75;;;0.10;99.90;;;;;;2059460;28;20033;-72
2021/11/29 00:26:51;;;;;;;44.42;25.80;;;0.10;99.90;;;;;;2060600;28;20042;-72
2021/11/29 00:27:52;;;;;;;41.97;25.58;;;0.20;99.90;;;;;;2055659;28;20054;-71
2021/11/29 00:28:53;;;;;;;46.15;27.35;;;0.20;99.90;;;;;;2063451;28;20042;-70
2021/11/29 00:29:54;;;;;;;48.90;29.23;;;0.20;99.90;;;;;;2049138;28;20101;-72
2021/11/29 00:30:55;;;;;;;48.78;28.75;;;0.20;99.90;;;;;;2056024;28;20758;-72
2021/11/29 00:31:55;;;;;;;55.70;30.85;;;0.20;99.90;;;;;;2055708;28;20041;-71
2021/11/29 00:32:56;;;;;;;52.72;30.67;;;0.30;99.90;;;;;;2056721;28;20109;-71
2021/11/29 00:33:57;;;;;;;52.90;30.40;;;0.30;99.90;;;;;;2055783;28;20039;-72
2021/11/29 00:34:58;;;;;;;49.97;29.75;;;0.30;99.90;;;;;;2055758;28;20035;-72
2021/11/29 00:35:59;;;;;;;52.35;29.95;;;0.40;99.90;;;;;;2056391;28;20027;-72
2021/11/29 00:37:00;;;;;;;50.85;29.98;;;0.40;99.90;;;;;;2055703;28;20038;-70
2021/11/29 00:38:01;;;;;;;50.03;29.67;;;0.40;99.90;;;;;;2047701;29;20107;-71
2021/11/29 00:39:02;;;;;;;48.78;28.88;;;0.50;99.90;;;;;;2047851;28;20034;-70
2021/11/29 00:40:06;;;;;;;48.65;28.40;;;0.50;99.90;;;;;;2055794;28;20023;-71
2021/11/29 00:41:07;;;;;;;46.45;28.02;;;0.60;99.90;;;;;;2055620;28;20031;-72
2021/11/29 00:42:08;;;;;;;42.80;26.65;;;0.60;99.90;;;;;;2054956;28;20042;-72
2021/11/29 00:43:09;;;;;;;45.63;27.48;;;0.70;99.90;;;;;;2056423;28;20041;-73
2021/11/29 00:44:10;;;;;;;43.10;27.02;;;0.70;99.90;;;;;;2056219;28;20026;-72
2021/11/29 00:45:11;;;;;;;44.35;26.35;;;0.80;99.90;;;;;;2056352;28;20031;-71
2021/11/29 00:46:12;;;;;;;41.80;26.52;;;0.80;99.90;;;;;;2056361;28;20130;-72
2021/11/29 00:47:13;;;;;;;41.63;25.83;;;0.80;99.90;;;;;;2056218;28;20061;-71
2021/11/29 00:48:14;;;;;;;42.47;25.70;;;0.90;99.90;;;;;;2047777;28;20566;-72
2021/11/29 00:49:14;;;;;;;41.53;26.17;;;0.90;99.90;;;;;;2052145;29;20038;-72
2021/11/29 00:50:16;;;;;;;40.28;25.63;;;0.90;99.90;;;;;;2059526;28;20054;-71
2021/11/29 00:51:17;;;;;;;38.95;23.88;;;1.00;99.90;;;;;;2058408;28;20055;-71
2021/11/29 00:52:18;;;;;;;40.15;25.08;;;1.00;99.90;;;;;;2060602;28;20059;-71
2021/11/29 00:53:19;;;;;;;37.78;24.05;;;1.00;99.90;;;;;;2063848;28;20054;-71
2021/11/29 00:54:19;;;;;;;40.03;24.55;;;1.10;99.90;;;;;;2062453;28;20041;-71
2021/11/29 00:55:20;;;;;;;39.53;24.75;;;1.10;99.90;;;;;;2061786;28;20536;-72
2021/11/29 00:56:21;;;;;;;42.38;25.65;;;1.10;99.90;;;;;;2061286;28;20035;-71
2021/11/29 00:57:22;;;;;;;40.20;25.48;;;1.20;99.90;;;;;;2056841;28;20083;-71
2021/11/29 00:58:23;;;;;;;37.97;24.52;;;1.20;99.90;;;;;;2055658;28;20070;-71
2021/11/29 00:59:24;;;;;;;39.22;25.10;;;1.20;99.90;;;;;;2055717;28;20034;-71
2021/11/29 01:00:26;;;;;;;38.80;24.23;;;1.30;99.90;;;;;;2055778;28;20035;-71
2021/11/29 01:01:27;;;;;;;36.95;24.40;;;1.30;99.90;;;;;;2054953;28;20031;-72
2021/11/29 01:02:28;;;;;;;35.80;23.90;;;1.30;99.90;;;;;;2056214;28;20051;-71
2021/11/29 01:03:29;;;;;;;36.83;24.13;;;1.40;99.90;;;;;;2055666;28;20038;-71
2021/11/29 01:04:30;;;;;;;37.63;23.58;;;1.40;99.90;;;;;;2055732;28;20026;-73
2021/11/29 01:05:31;;;;;;;38.33;24.42;;;1.40;99.90;;;;;;2057998;28;20494;-72
2021/11/29 01:06:32;;;;;;;36.15;23.33;;;1.40;99.90;;;;;;2057152;28;20170;-71
2021/11/29 01:07:32;;;;;;;36.67;23.45;;;1.40;99.90;;;;;;2057420;28;20585;-72
2021/11/29 01:08:33;;;;;;;37.65;23.10;;;1.40;99.90;;;;;;2049163;28;20031;-71
2021/11/29 01:09:35;;;;;;;37.90;24.08;;;1.40;99.90;;;;;;2041170;29;20059;-71
2021/11/29 01:10:36;;;;;;;39.70;23.77;;;1.50;99.90;;;;;;2057318;28;20019;-71
2021/11/29 01:11:37;;;;;;;36.88;24.55;;;1.40;99.90;;;;;;2057099;28;20030;-72
2021/11/29 01:12:38;;;;;;;37.22;23.45;;;1.50;99.90;;;;;;2057202;28;20022;-72
2021/11/29 01:13:39;;;;;;;36.47;23.48;;;1.40;99.90;;;;;;2056962;28;20039;-72
2021/11/29 01:14:40;;;;;;;33.80;23.10;;;1.50;99.90;;;;;;2057140;28;20038;-72
2021/11/29 01:15:43;;;;;;;35.20;23.13;;;1.50;99.90;;;;;;2057312;28;20049;-72
2021/11/29 01:16:44;;;;;;;34.92;22.25;;;1.50;99.90;;;;;;2057330;28;20070;-72
2021/11/29 01:17:46;;;;;;;36.33;23.00;;;1.50;99.90;;;;;;2057342;28;20090;-71
2021/11/29 01:18:47;;;;;;;39.03;23.02;;;1.50;99.90;;;;;;2057862;28;20522;-71
2021/11/29 01:19:48;;;;;;;34.25;22.60;;;1.50;99.90;;;;;;2057900;28;20101;-71
2021/11/29 01:20:49;;;;;;;34.58;22.42;;;1.50;99.90;;;;;;2057282;28;20052;-71
2021/11/29 01:21:49;;;;;;;35.25;22.83;;;1.50;99.90;;;;;;2056342;28;20027;-71
2021/11/29 01:22:50;;;;;;;36.45;22.60;;;1.50;99.90;;;;;;2057772;28;20027;-71
2021/11/29 01:23:52;;;;;;;36.22;22.85;;;1.50;99.90;;;;;;2056829;28;20030;-71
2021/11/29 01:24:53;;;;;;;33.95;22.27;;;1.50;99.90;;;;;;2057099;28;20082;-71
2021/11/29 01:25:54;;;;;;;34.22;22.10;;;1.50;99.90;;;;;;2059170;28;20067;-71
2021/11/29 01:26:55;;;;;;;32.20;21.33;;;1.50;99.90;;;;;;2058568;28;20093;-72
2021/11/29 01:27:55;;;;;;;34.50;21.65;;;1.60;99.90;;;;;;2059142;28;20035;-72
2021/11/29 01:28:56;;;;;;;33.03;21.75;;;1.50;99.90;;;;;;2059432;28;20038;-72
2021/11/29 01:29:57;;;;;;;32.35;21.90;;;1.60;99.90;;;;;;2059252;28;20070;-71
2021/11/29 01:30:58;;;;;;;34.45;21.50;;;1.60;99.90;;;;;;2059733;28;20031;-71
2021/11/29 01:31:59;;;;;;;34.13;22.13;;;1.60;99.90;;;;;;2058804;28;20034;-73
2021/11/29 01:33:00;;;;;;;32.00;21.45;;;1.60;99.90;;;;;;2059119;28;20031;-71
2021/11/29 01:34:01;;;;;;;33.83;21.08;;;1.60;99.90;;;;;;2057834;28;20054;-71
2021/11/29 01:35:02;;;;;;;33.63;22.40;;;1.60;99.90;;;;;;2056974;28;20034;-71
2021/11/29 01:36:04;;;;;;;32.13;21.23;;;1.60;99.90;;;;;;2057232;28;20198;-71
2021/11/29 01:37:05;;;;;;;31.77;19.98;;;1.60;99.90;;;;;;2056778;28;20090;-72
2021/11/29 01:38:06;;;;;;;32.22;21.02;;;1.70;99.90;;;;;;2056990;28;20031;-71
2021/11/29 01:39:07;;;;;;;32.67;22.48;;;1.70;99.90;;;;;;2057155;28;20562;-71
2021/11/29 01:40:09;;;;;;;31.00;20.95;;;1.70;99.90;;;;;;2057671;28;20081;-71
2021/11/29 01:41:12;;;;;;;32.88;21.67;;;1.60;99.90;;;;;;2057696;28;20561;-71
2021/11/29 01:42:13;;;;;;;33.50;21.88;;;1.60;99.90;;;;;;2056939;28;20037;-71
2021/11/29 01:43:16;;;;;;;33.15;21.85;;;1.60;99.90;;;;;;2057222;28;20483;-71
2021/11/29 01:44:17;;;;;;;31.15;20.92;;;1.60;99.90;;;;;;2057119;28;20097;-70
2021/11/29 01:45:18;;;;;;;32.83;21.00;;;1.60;99.90;;;;;;2057919;28;20031;-71
2021/11/29 01:46:19;;;;;;;33.83;21.88;;;1.60;99.90;;;;;;2057624;28;20051;-71
2021/11/29 01:47:21;;;;;;;32.72;22.20;;;1.50;99.90;;;;;;2057667;28;20026;-72
2021/11/29 01:48:24;;;;;;;34.53;21.48;;;1.50;99.90;;;;;;2057551;28;20454;-72
2021/11/29 01:49:25;;;;;;;32.72;21.75;;;1.50;99.90;;;;;;2057769;28;20708;-72
2021/11/29 01:50:26;;;;;;;32.97;21.83;;;1.50;99.90;;;;;;2056776;28;20075;-71
2021/11/29 01:51:27;;;;;;;34.50;22.40;;;1.50;99.90;;;;;;2056566;28;20706;-71
2021/11/29 01:52:28;;;;;;;33.10;22.58;;;1.50;99.90;;;;;;2056771;28;20034;-71
2021/11/29 01:53:30;;;;;;;35.53;22.20;;;1.50;99.90;;;;;;2057198;28;20015;-71
2021/11/29 01:54:31;;;;;;;34.17;22.38;;;1.50;99.90;;;;;;2057888;28;20463;-72
2021/11/29 01:55:34;;;;;;;34.60;22.00;;;1.50;99.90;;;;;;2057843;28;20038;-71
2021/11/29 01:56:36;;;;;;;33.45;21.50;;;1.40;99.90;;;;;;2057024;28;20746;-72
2021/11/29 01:57:37;;;;;;;34.55;22.30;;;1.40;99.90;;;;;;2057088;28;20027;-71
2021/11/29 01:58:40;;;;;;;33.30;22.13;;;1.40;99.90;;;;;;2057671;28;20046;-72
2021/11/29 01:59:41;;;;;;;34.72;22.33;;;1.50;99.90;;;;;;2056995;28;20031;-72
2021/11/29 02:00:45;;;;;;;32.22;21.38;;;1.50;99.90;;;;;;2056997;28;20019;-72
2021/11/29 02:01:46;;;;;;;31.17;21.23;;;1.50;99.90;;;;;;2056744;28;20090;-72
2021/11/29 02:02:49;;;;;;;31.17;20.83;;;1.50;99.90;;;;;;2057697;28;20058;-72
2021/11/29 02:03:53;;;;;;;32.78;21.05;;;1.50;99.90;;;;;;2057643;28;20030;-71
2021/11/29 02:04:59;;;;;;;31.20;20.45;;;1.50;99.90;;;;;;2057919;28;20034;-71
2021/11/29 02:05:59;;;;;;;31.30;20.52;;;1.50;99.90;;;;;;2057871;28;20019;-72
2021/11/29 02:07:00;;;;;;;32.45;21.42;;;1.60;99.90;;;;;;2057050;28;20121;-71
2021/11/29 02:08:01;;;;;;;31.92;20.92;;;1.60;99.90;;;;;;2057710;28;20530;-72
2021/11/29 02:09:04;;;;;;;32.38;22.15;;;1.60;99.90;;;;;;2058696;28;20101;-72
2021/11/29 02:10:05;;;;;;;34.65;22.38;;;1.60;99.90;;;;;;2058980;28;20031;-73
2021/11/29 02:11:06;;;;;;;33.83;22.80;;;1.60;99.90;;;;;;2059780;28;20116;-72
2021/11/29 02:12:07;;;;;;;36.15;22.98;;;1.60;99.90;;;;;;2058417;28;20062;-73
2021/11/29 02:13:09;;;;;;;35.35;22.58;;;1.60;99.90;;;;;;2060199;28;20031;-71
2021/11/29 02:14:11;;;;;;;32.80;22.08;;;1.60;99.90;;;;;;2056980;28;20486;-71
2021/11/29 02:15:13;;;;;;;32.30;20.98;;;1.60;99.90;;;;;;2056955;28;20548;-71
2021/11/29 02:16:14;;;;;;;31.00;21.77;;;1.60;99.90;;;;;;2057022;28;20034;-72
2021/11/29 02:17:16;;;;;;;33.58;21.60;;;1.60;99.90;;;;;;2057541;28;20026;-72
2021/11/29 02:18:27;;;;;;;31.23;21.00;;;1.60;99.90;;;;;;2057538;28;20081;-71
2021/11/29 02:19:28;;;;;;;31.55;20.75;;;1.70;99.90;;;;;;2057368;28;20042;-72
2021/11/29 02:20:34;;;;;;;30.75;20.77;;;1.70;99.90;;;;;;2057471;28;20035;-72
2021/11/29 02:21:35;;;;;;;31.13;20.45;;;1.70;99.90;;;;;;2056712;28;20022;-71
2021/11/29 02:22:37;;;;;;;32.45;21.52;;;1.70;99.90;;;;;;2048691;28;20687;-72
2021/11/29 02:23:52;;;;;;;32.63;20.90;;;1.80;99.90;;;;;;2048901;28;20039;-72
2021/11/29 02:24:53;;;;;;;31.92;20.73;;;1.80;99.90;;;;;;2057242;28;20027;-71
2021/11/29 02:25:53;;;;;;;31.85;20.60;;;1.80;99.90;;;;;;2057361;28;20734;-72
2021/11/29 02:26:54;;;;;;;32.40;21.70;;;1.80;99.90;;;;;;2057311;28;20031;-70
2021/11/29 02:27:56;;;;;;;34.85;21.40;;;1.80;99.90;;;;;;2057505;28;20035;-71
2021/11/29 02:29:07;;;;;;;30.40;20.67;;;1.80;99.90;;;;;;2056772;28;20117;-71
2021/11/29 02:30:09;;;;;;;31.33;21.13;;;1.90;99.90;;;;;;2056661;28;20030;-71
2021/11/29 02:31:14;;;;;;;35.25;21.85;;;1.90;99.90;;;;;;2057213;28;20105;-71
2021/11/29 02:32:15;;;;;;;35.72;22.73;;;1.90;99.90;;;;;;2056564;28;20027;-71
2021/11/29 02:33:16;;;;;;;35.00;22.80;;;1.90;99.90;;;;;;2057532;28;20041;-71
2021/11/29 02:34:23;;;;;;;35.85;22.80;;;1.90;99.90;;;;;;2057183;28;20085;-71
2021/11/29 02:35:26;;;;;;;35.08;22.70;;;1.90;99.90;;;;;;2056672;28;20065;-72
2021/11/29 02:36:27;;;;;;;34.53;22.13;;;1.90;99.90;;;;;;2056755;28;20038;-70
2021/11/29 02:37:28;;;;;;;35.28;22.38;;;1.90;99.90;;;;;;2057376;28;20069;-72
2021/11/29 02:38:29;;;;;;;34.78;22.58;;;1.90;99.90;;;;;;2056536;28;20027;-72
2021/11/29 02:39:31;;;;;;;36.20;22.77;;;1.90;99.90;;;;;;2056703;28;20114;-71
2021/11/29 02:40:33;;;;;;;32.45;21.70;;;1.90;99.90;;;;;;2056613;28;20030;-72
2021/11/29 02:41:34;;;;;;;32.88;21.38;;;1.90;99.90;;;;;;2055586;28;20019;-71
2021/11/29 02:42:36;;;;;;;36.05;22.25;;;1.90;99.90;;;;;;2057086;28;20077;-71
2021/11/29 02:43:37;;;;;;;32.97;21.75;;;2.00;99.90;;;;;;2057339;28;20161;-71
2021/11/29 02:44:39;;;;;;;31.38;21.90;;;2.00;99.90;;;;;;2057272;28;20093;-71
2021/11/29 02:45:39;;;;;;;31.25;21.83;;;1.90;99.90;;;;;;2057244;28;20038;-71
2021/11/29 02:46:42;;;;;;;30.92;21.38;;;1.90;99.90;;;;;;2057391;28;20041;-71
2021/11/29 02:47:42;;;;;;;31.20;21.38;;;2.00;99.90;;;;;;2057340;28;20030;-72
2021/11/29 02:48:46;;;;;;;33.20;21.83;;;2.00;99.90;;;;;;2057665;28;20035;-71
2021/11/29 02:49:48;;;;;;;33.03;21.30;;;1.90;99.90;;;;;;2057516;28;20031;-72
2021/11/29 02:50:48;;;;;;;35.33;22.15;;;2.00;99.90;;;;;;2056770;28;20027;-72
2021/11/29 02:51:53;;;;;;;31.38;20.55;;;2.00;99.90;;;;;;2055758;28;20031;-72
2021/11/29 02:52:54;;;;;;;31.33;20.83;;;2.00;99.90;;;;;;2057346;28;20026;-72
2021/11/29 02:54:06;;;;;;;32.35;20.67;;;2.00;99.90;;;;;;2057269;28;20042;-71
2021/11/29 02:55:08;;;;;;;30.95;20.35;;;1.90;99.90;;;;;;2056718;28;20474;-73
2021/11/29 02:56:09;;;;;;;30.40;20.02;;;1.90;99.90;;;;;;2056835;28;20023;-73
2021/11/29 02:57:17;;;;;;;31.80;20.83;;;1.90;99.90;;;;;;2057176;28;20486;-72
2021/11/29 02:58:17;;;;;;;30.35;20.58;;;1.90;99.90;;;;;;2056824;28;20026;-72
2021/11/29 02:59:21;;;;;;;29.08;19.55;;;1.90;99.90;;;;;;2048974;28;20035;-72
2021/11/29 03:00:22;;;;;;;35.72;22.70;;;1.90;99.90;;;;;;2056742;28;20506;-72
2021/11/29 03:01:23;;;;;;;33.22;21.98;;;1.90;99.90;;;;;;2056985;28;20078;-72
2021/11/29 03:02:24;;;;;;;32.88;21.65;;;1.90;99.90;;;;;;2056087;28;20381;-72
2021/11/29 03:03:25;;;;;;;34.53;22.00;;;1.90;99.90;;;;;;2056795;28;20019;-71
2021/11/29 03:04:28;;;;;;;31.35;20.42;;;1.90;99.90;;;;;;2057477;28;20058;-73
2021/11/29 03:05:28;;;;;;;30.90;21.02;;;1.90;99.90;;;;;;2057394;28;20046;-72
2021/11/29 03:06:29;;;;;;;32.17;21.08;;;1.90;99.90;;;;;;2057165;28;20057;-72
2021/11/29 03:07:30;;;;;;;31.85;21.10;;;1.90;99.90;;;;;;2057573;28;20101;-73
2021/11/29 03:08:31;;;;;;;35.35;23.45;;;1.90;99.90;;;;;;2057383;28;20061;-72
2021/11/29 03:09:34;;;;;;;35.30;23.55;;;1.90;99.90;;;;;;2057257;28;20035;-73
2021/11/29 03:10:35;;;;;;;36.65;23.38;;;1.90;99.90;;;;;;2057089;28;20458;-71
2021/11/29 03:11:36;;;;;;;33.20;22.70;;;1.90;99.90;;;;;;2056235;28;20054;-70
2021/11/29 03:12:37;;;;;;;35.15;21.60;;;1.90;99.90;;;;;;2056732;28;20019;-70
2021/11/29 03:13:38;;;;;;;33.70;22.08;;;1.80;99.90;;;;;;2056933;28;20019;-72
2021/11/29 03:14:50;;;;;;;32.17;21.15;;;1.90;99.90;;;;;;2057079;28;20186;-72
2021/11/29 03:15:54;;;;;;;32.25;20.77;;;1.80;99.90;;;;;;2048553;28;20090;-72
2021/11/29 03:16:56;;;;;;;31.65;21.05;;;1.90;99.90;;;;;;2049073;28;20066;-71
2021/11/29 03:17:56;;;;;;;32.20;21.70;;;1.90;99.90;;;;;;2057103;28;20031;-71
2021/11/29 03:18:57;;;;;;;33.10;22.25;;;1.90;99.90;;;;;;2057174;28;20023;-71
2021/11/29 03:19:58;;;;;;;35.47;23.23;;;1.90;99.90;;;;;;2057054;28;20871;-71
2021/11/29 03:20:59;;;;;;;35.00;22.80;;;1.90;99.90;;;;;;2057161;28;20141;-71
2021/11/29 03:22:02;;;;;;;35.47;22.90;;;1.90;99.90;;;;;;2055502;28;20046;-71
2021/11/29 03:23:03;;;;;;;36.63;22.73;;;1.90;99.90;;;;;;2056507;28;20030;-71
2021/11/29 03:24:07;;;;;;;33.78;21.92;;;1.80;99.90;;;;;;2057030;28;20035;-71
2021/11/29 03:25:10;;;;;;;35.80;22.95;;;1.90;99.90;;;;;;2056377;28;20046;-72
2021/11/29 03:26:15;;;;;;;34.67;22.73;;;1.90;99.90;;;;;;2048444;28;20031;-71
2021/11/29 03:27:16;;;;;;;34.50;22.48;;;1.90;99.90;;;;;;2056006;28;20069;-71
2021/11/29 03:28:17;;;;;;;33.05;21.05;;;1.90;99.90;;;;;;2056577;28;20090;-72
2021/11/29 03:29:19;;;;;;;32.63;21.27;;;1.90;99.90;;;;;;2056802;28;20058;-72
2021/11/29 03:30:20;;;;;;;32.25;21.52;;;1.90;99.90;;;;;;2056268;28;20034;-71
2021/11/29 03:31:22;;;;;;;32.20;21.50;;;1.90;99.90;;;;;;2056326;28;20599;-72
2021/11/29 03:32:24;;;;;;;32.40;21.40;;;1.90;99.90;;;;;;2055454;28;20610;-71
2021/11/29 03:33:24;;;;;;;31.90;21.25;;;1.90;99.90;;;;;;2055960;28;20126;-71
2021/11/29 03:34:27;;;;;;;34.47;22.00;;;1.90;99.90;;;;;;2056517;28;20042;-71
2021/11/29 03:35:28;;;;;;;32.03;20.85;;;1.90;99.90;;;;;;2056318;28;20398;-71
2021/11/29 03:36:31;;;;;;;35.22;21.45;;;1.90;99.90;;;;;;2056269;28;20038;-71
2021/11/29 03:37:31;;;;;;;32.47;20.85;;;1.90;99.90;;;;;;2056796;28;20471;-71
2021/11/29 03:38:33;;;;;;;33.72;21.63;;;1.90;99.90;;;;;;2056789;28;20038;-71
2021/11/29 03:39:34;;;;;;;34.33;22.30;;;1.90;99.90;;;;;;2056920;28;20031;-71
2021/11/29 03:40:36;;;;;;;32.78;21.63;;;1.90;99.90;;;;;;2056669;28;20041;-71
2021/11/29 03:41:39;;;;;;;32.42;21.77;;;1.90;99.90;;;;;;2055361;28;20039;-71
2021/11/29 03:42:39;;;;;;;33.30;21.63;;;1.90;99.90;;;;;;2056203;28;20090;-71
2021/11/29 03:43:40;;;;;;;33.08;20.90;;;1.90;99.90;;;;;;2056716;28;20031;-72
2021/11/29 03:44:41;;;;;;;30.90;20.38;;;2.00;99.90;;;;;;2056557;28;20117;-72
2021/11/29 03:45:42;;;;;;;28.85;20.08;;;2.00;99.90;;;;;;2055878;28;20033;-71
2021/11/29 03:46:44;;;;;;;29.95;20.42;;;2.00;99.90;;;;;;2056090;28;20505;-71
2021/11/29 03:47:45;;;;;;;28.40;19.70;;;2.00;99.90;;;;;;2056040;28;20061;-71
2021/11/29 03:48:46;;;;;;;30.67;20.23;;;2.00;99.90;;;;;;2057050;28;20506;-71
2021/11/29 03:49:49;;;;;;;33.67;21.52;;;2.00;99.90;;;;;;2056626;28;20479;-71
2021/11/29 03:50:50;;;;;;;31.27;20.08;;;2.00;99.90;;;;;;2056597;28;20387;-71
2021/11/29 03:51:51;;;;;;;30.02;20.02;;;2.00;99.90;;;;;;2055849;28;20029;-72
2021/11/29 03:52:52;;;;;;;33.38;20.83;;;2.00;99.90;;;;;;2056690;28;20090;-71
2021/11/29 03:53:52;;;;;;;30.10;20.23;;;2.00;99.90;;;;;;2056173;28;20089;-71
2021/11/29 03:54:53;;;;;;;30.83;20.45;;;2.00;99.90;;;;;;2055841;28;20109;-71
2021/11/29 03:55:54;;;;;;;30.85;20.20;;;2.00;99.90;;;;;;2056117;28;20557;-72
2021/11/29 03:56:55;;;;;;;29.42;19.83;;;2.00;99.90;;;;;;2056082;28;20027;-71
2021/11/29 03:57:56;;;;;;;31.40;20.85;;;2.10;99.90;;;;;;2056649;28;20034;-70
2021/11/29 03:58:56;;;;;;;31.90;21.45;;;2.00;99.90;;;;;;2056554;28;20031;-72
2021/11/29 03:59:57;;;;;;;31.70;20.98;;;2.00;99.90;;;;;;2056054;28;20035;-71
2021/11/29 04:00:58;;;;;;;30.88;20.67;;;2.00;99.90;;;;;;2056243;28;20080;-71
2021/11/29 04:01:59;;;;;;;32.50;21.25;;;2.00;99.90;;;;;;2055991;28;20031;-71
2021/11/29 04:03:00;;;;;;;29.92;20.85;;;2.00;99.90;;;;;;2056743;28;20031;-71
2021/11/29 04:04:01;;;;;;;32.58;20.88;;;2.00;99.90;;;;;;2055973;28;20041;-71
2021/11/29 04:05:02;;;;;;;30.73;20.27;;;2.00;99.90;;;;;;2056072;28;20045;-70
2021/11/29 04:06:03;;;;;;;30.10;19.73;;;2.00;99.90;;;;;;2056688;28;20064;-72
2021/11/29 04:07:04;;;;;;;28.67;19.42;;;2.00;99.90;;;;;;2056660;28;20486;-72
2021/11/29 04:08:05;;;;;;;30.15;20.13;;;2.00;99.90;;;;;;2056614;28;20371;-72
2021/11/29 04:09:06;;;;;;;29.05;20.13;;;2.00;99.90;;;;;;2056474;28;20061;-72
2021/11/29 04:10:08;;;;;;;29.30;19.70;;;2.00;99.90;;;;;;2056592;28;20030;-73
2021/11/29 04:11:09;;;;;;;31.00;20.15;;;2.00;99.90;;;;;;2056418;28;20544;-72
2021/11/29 04:12:10;;;;;;;28.98;19.30;;;2.00;99.90;;;;;;2055851;28;20244;-72
2021/11/29 04:13:11;;;;;;;28.75;19.85;;;1.90;99.90;;;;;;2056743;28;20153;-72
2021/11/29 04:14:11;;;;;;;31.70;20.38;;;2.00;99.90;;;;;;2056434;28;20035;-72
2021/11/29 04:15:12;;;;;;;29.92;19.98;;;2.00;99.90;;;;;;2056497;28;20062;-70
2021/11/29 04:16:15;;;;;;;30.63;19.85;;;2.00;99.90;;;;;;2056559;28;20486;-71
2021/11/29 04:17:16;;;;;;;32.97;20.98;;;1.90;99.90;;;;;;2056582;28;20088;-71
2021/11/29 04:18:17;;;;;;;30.00;20.27;;;1.90;99.90;;;;;;2056329;28;20514;-71
2021/11/29 04:19:17;;;;;;;31.48;19.90;;;1.90;99.90;;;;;;2056556;28;20035;-72
2021/11/29 04:20:18;;;;;;;29.83;19.80;;;1.90;99.90;;;;;;2056457;28;20105;-72
2021/11/29 04:21:19;;;;;;;28.48;20.15;;;2.00;99.90;;;;;;2056461;28;20490;-72
2021/11/29 04:22:20;;;;;;;30.08;20.45;;;2.00;99.90;;;;;;2055145;28;20067;-72
2021/11/29 04:23:21;;;;;;;31.35;20.70;;;2.00;99.90;;;;;;2055892;28;20019;-72
2021/11/29 04:24:23;;;;;;;29.73;19.98;;;2.00;99.90;;;;;;2056457;28;20084;-71
2021/11/29 04:25:25;;;;;;;32.00;21.42;;;2.00;99.90;;;;;;2055718;28;20118;-71
2021/11/29 04:26:28;;;;;;;32.83;21.60;;;2.00;99.90;;;;;;2047941;28;20038;-72
2021/11/29 04:27:29;;;;;;;35.40;22.52;;;2.00;99.90;;;;;;2056081;28;20032;-71
2021/11/29 04:28:31;;;;;;;32.00;21.40;;;2.00;99.90;;;;;;2056539;28;20015;-71
2021/11/29 04:29:35;;;;;;;33.92;21.80;;;2.00;99.90;;;;;;2056453;28;20041;-72
2021/11/29 04:30:37;;;;;;;34.05;21.52;;;2.00;99.90;;;;;;2056659;28;20490;-72
2021/11/29 04:31:37;;;;;;;32.60;21.60;;;2.10;99.90;;;;;;2056027;28;20504;-73
2021/11/29 04:32:41;;;;;;;32.08;21.42;;;2.10;99.90;;;;;;2047795;28;20061;-71
2021/11/29 04:33:42;;;;;;;36.38;22.92;;;2.10;99.90;;;;;;2048594;28;20058;-71
2021/11/29 04:34:43;;;;;;;37.03;22.90;;;2.10;99.90;;;;;;2056506;28;20620;-72
2021/11/29 04:35:43;;;;;;;32.80;22.15;;;2.10;99.90;;;;;;2056562;28;20049;-71
2021/11/29 04:36:44;;;;;;;34.58;22.98;;;2.10;99.90;;;;;;2056662;28;20078;-72
2021/11/29 04:37:46;;;;;;;36.42;23.73;;;2.10;99.90;;;;;;2056491;28;20018;-72
2021/11/29 04:38:46;;;;;;;36.67;23.90;;;2.20;99.90;;;;;;2056534;28;20019;-72
2021/11/29 04:39:47;;;;;;;37.53;24.23;;;2.10;99.90;;;;;;2055726;28;20089;-71
2021/11/29 04:40:48;;;;;;;36.05;23.70;;;2.20;99.90;;;;;;2055792;28;20065;-73
2021/11/29 04:41:49;;;;;;;39.47;24.20;;;2.20;99.90;;;;;;2055028;28;20057;-71
2021/11/29 04:42:49;;;;;;;36.03;23.25;;;2.20;99.90;;;;;;2056352;28;20652;-71
2021/11/29 04:43:50;;;;;;;34.95;22.65;;;2.20;99.90;;;;;;2056314;28;20023;-71
2021/11/29 04:44:51;;;;;;;38.08;24.13;;;2.20;99.90;;;;;;2055628;28;20486;-71
2021/11/29 04:45:52;;;;;;;34.70;23.15;;;2.20;99.90;;;;;;2055644;28;20074;-71
2021/11/29 04:46:55;;;;;;;33.55;22.60;;;2.20;99.90;;;;;;2058197;28;20434;-71
2021/11/29 04:47:56;;;;;;;33.10;21.38;;;2.30;99.90;;;;;;2058675;28;20895;-71
2021/11/29 04:48:57;;;;;;;33.47;21.65;;;2.30;99.90;;;;;;2059541;28;20617;-72
2021/11/29 04:49:57;;;;;;;32.60;21.30;;;2.30;99.90;;;;;;2059908;28;20030;-71
2021/11/29 04:50:58;;;;;;;33.90;22.25;;;2.30;99.90;;;;;;2056160;28;20828;-70
2021/11/29 04:52:00;;;;;;;33.95;22.17;;;2.30;99.90;;;;;;2055453;28;20055;-71
2021/11/29 04:53:00;;;;;;;37.25;24.17;;;2.30;99.90;;;;;;2056473;28;20518;-70
2021/11/29 04:54:02;;;;;;;37.33;23.65;;;2.30;99.90;;;;;;2056406;28;20031;-71
2021/11/29 04:55:04;;;;;;;36.80;23.42;;;2.30;99.90;;;;;;2056571;28;20126;-72
2021/11/29 04:56:05;;;;;;;38.08;24.35;;;2.30;99.90;;;;;;2055783;28;20086;-71
2021/11/29 04:57:06;;;;;;;39.28;24.80;;;2.30;99.90;;;;;;2056043;28;20105;-72
2021/11/29 04:58:07;;;;;;;36.45;24.25;;;2.30;99.90;;;;;;2056619;28;20450;-72
2021/11/29 04:59:08;;;;;;;38.53;24.63;;;2.30;99.90;;;;;;2056532;28;20471;-71
2021/11/29 05:00:12;;;;;;;36.28;23.55;;;2.30;99.90;;;;;;2055743;28;20442;-73
2021/11/29 05:01:13;;;;;;;35.80;22.58;;;2.30;99.90;;;;;;2056011;28;20023;-73
2021/11/29 05:02:14;;;;;;;36.95;23.77;;;2.30;99.90;;;;;;2055256;28;20526;-73
2021/11/29 05:03:15;;;;;;;39.83;24.90;;;2.30;99.90;;;;;;2055959;28;20510;-72
2021/11/29 05:04:15;;;;;;;37.53;23.88;;;2.30;99.90;;;;;;2057053;28;20039;-71
2021/11/29 05:05:16;;;;;;;39.08;24.20;;;2.30;99.90;;;;;;2058530;28;20043;-71
2021/11/29 05:06:19;;;;;;;38.83;25.27;;;2.30;99.90;;;;;;2060480;28;20518;-72
2021/11/29 05:07:20;;;;;;;38.03;24.73;;;2.30;99.90;;;;;;2052396;28;20042;-71
2021/11/29 05:08:21;;;;;;;39.10;24.55;;;2.40;99.90;;;;;;2058364;28;20038;-72
2021/11/29 05:09:22;;;;;;;37.47;24.25;;;2.30;99.90;;;;;;2056921;28;20030;-72
2021/11/29 05:10:22;;;;;;;37.33;24.98;;;2.30;99.90;;;;;;2056596;28;20074;-72
2021/11/29 05:11:23;;;;;;;44.05;25.77;;;2.30;99.90;;;;;;2056387;28;20031;-71
2021/11/29 05:12:24;;;;;;;40.55;25.45;;;2.30;99.90;;;;;;2056023;28;20684;-71
2021/11/29 05:13:25;;;;;;;39.10;24.63;;;2.30;99.90;;;;;;2055736;28;20035;-71
2021/11/29 05:14:25;;;;;;;40.40;24.98;;;2.30;99.90;;;;;;2055720;28;20054;-72
2021/11/29 05:15:26;;;;;;;39.83;24.63;;;2.30;99.90;;;;;;2056119;28;20065;-72